sensor_id;sensor_type;location;lat;lon;timestamp;temperature;humidity
15413;DHT22;7805;49.554;7.632;2023-07-20T00:00:25;18.30;99.90
15413;DHT22;7805;49.554;7.632;2023-07-20T00:02:51;17.80;99.90
15413;DHT22;7805;49.554;7.632;2023-07-20T00:05:17;18.20;99.90
15413;DHT22;7805;49.554;7.632;2023-07-20T00:07:47;18.10;99.90
15413;DHT22;7805;49.554;7.632;2023-07-20T00:10:12;18.00;99.90
15413;DHT22;7805;49.554;7.632;2023-07-20T00:12:38;17.90;99.90
15413;DHT22;7805;49.554;7.632;2023-07-20T00:15:04;17.90;99.90
15413;DHT22;7805;49.554;7.632;2023-07-20T00:17:30;17.90;99.90
15413;DHT22;7805;49.554;7.632;2023-07-20T00:19:55;17.90;99.90
15413;DHT22;7805;49.554;7.632;2023-07-20T00:22:21;17.90;99.90
15413;DHT22;7805;49.554;7.632;2023-07-20T00:24:46;17.90;99.90
15413;DHT22;7805;49.554;7.632;2023-07-20T00:27:12;17.90;99.90
15413;DHT22;7805;49.554;7.632;2023-07-20T00:29:38;17.90;99.90
15413;DHT22;7805;49.554;7.632;2023-07-20T00:32:04;17.90;99.90
15413;DHT22;7805;49.554;7.632;2023-07-20T00:34:30;17.80;99.90
15413;DHT22;7805;49.554;7.632;2023-07-20T00:36:56;17.80;99.90
15413;DHT22;7805;49.554;7.632;2023-07-20T00:39:22;18.00;99.90
15413;DHT22;7805;49.554;7.632;2023-07-20T00:41:47;16.50;99.90
15413;DHT22;7805;49.554;7.632;2023-07-20T00:44:13;17.60;99.90
15413;DHT22;7805;49.554;7.632;2023-07-20T00:46:38;17.50;99.90
15413;DHT22;7805;49.554;7.632;2023-07-20T00:49:07;17.50;99.90
15413;DHT22;7805;49.554;7.632;2023-07-20T00:51:33;17.40;99.90
15413;DHT22;7805;49.554;7.632;2023-07-20T00:53:58;17.30;99.90
15413;DHT22;7805;49.554;7.632;2023-07-20T00:56:24;17.30;99.90
15413;DHT22;7805;49.554;7.632;2023-07-20T00:58:50;17.30;99.90
15413;DHT22;7805;49.554;7.632;2023-07-20T01:01:16;17.40;99.90
15413;DHT22;7805;49.554;7.632;2023-07-20T01:03:42;17.20;99.90
15413;DHT22;7805;49.554;7.632;2023-07-20T01:06:37;17.10;99.90
15413;DHT22;7805;49.554;7.632;2023-07-20T01:14:20;17.10;99.90
15413;DHT22;7805;49.554;7.632;2023-07-20T01:16:45;17.10;99.90
15413;DHT22;7805;49.554;7.632;2023-07-20T01:19:13;17.10;99.90
15413;DHT22;7805;49.554;7.632;2023-07-20T01:21:53;17.10;99.90
15413;DHT22;7805;49.554;7.632;2023-07-20T01:32:33;17.00;99.90
15413;DHT22;7805;49.554;7.632;2023-07-20T01:35:01;16.90;99.90
15413;DHT22;7805;49.554;7.632;2023-07-20T01:37:29;16.90;99.90
15413;DHT22;7805;49.554;7.632;2023-07-20T01:39:56;16.90;99.90
15413;DHT22;7805;49.554;7.632;2023-07-20T01:42:22;16.90;99.90
15413;DHT22;7805;49.554;7.632;2023-07-20T01:44:51;16.80;99.90
15413;DHT22;7805;49.554;7.632;2023-07-20T01:47:18;16.70;99.90
15413;DHT22;7805;49.554;7.632;2023-07-20T01:49:43;16.80;99.90
15413;DHT22;7805;49.554;7.632;2023-07-20T01:52:09;16.70;99.90
15413;DHT22;7805;49.554;7.632;2023-07-20T01:54:34;17.00;99.90
15413;DHT22;7805;49.554;7.632;2023-07-20T01:57:00;16.70;99.90
15413;DHT22;7805;49.554;7.632;2023-07-20T01:59:25;16.60;99.90
15413;DHT22;7805;49.554;7.632;2023-07-20T02:01:52;16.50;99.90
15413;DHT22;7805;49.554;7.632;2023-07-20T02:04:18;16.50;99.90
15413;DHT22;7805;49.554;7.632;2023-07-20T02:06:43;16.50;99.90
15413;DHT22;7805;49.554;7.632;2023-07-20T02:09:09;16.50;99.90
15413;DHT22;7805;49.554;7.632;2023-07-20T02:11:34;16.40;99.90
15413;DHT22;7805;49.554;7.632;2023-07-20T02:14:00;16.30;99.90
15413;DHT22;7805;49.554;7.632;2023-07-20T02:16:26;16.30;99.90
15413;DHT22;7805;49.554;7.632;2023-07-20T02:18:52;16.30;99.90
15413;DHT22;7805;49.554;7.632;2023-07-20T02:21:18;16.20;99.90
15413;DHT22;7805;49.554;7.632;2023-07-20T02:23:44;16.20;99.90
15413;DHT22;7805;49.554;7.632;2023-07-20T02:26:09;16.10;99.90
15413;DHT22;7805;49.554;7.632;2023-07-20T02:28:35;16.10;99.90
15413;DHT22;7805;49.554;7.632;2023-07-20T02:31:01;16.00;99.90
15413;DHT22;7805;49.554;7.632;2023-07-20T02:33:26;16.10;99.90
15413;DHT22;7805;49.554;7.632;2023-07-20T02:35:52;16.10;99.90
15413;DHT22;7805;49.554;7.632;2023-07-20T02:38:17;16.10;99.90
15413;DHT22;7805;49.554;7.632;2023-07-20T02:40:43;16.10;99.90
15413;DHT22;7805;49.554;7.632;2023-07-20T02:43:09;16.10;99.90
15413;DHT22;7805;49.554;7.632;2023-07-20T02:45:35;16.10;99.90
15413;DHT22;7805;49.554;7.632;2023-07-20T02:48:01;16.00;99.90
15413;DHT22;7805;49.554;7.632;2023-07-20T02:50:26;16.00;99.90
15413;DHT22;7805;49.554;7.632;2023-07-20T02:52:52;16.00;99.90
15413;DHT22;7805;49.554;7.632;2023-07-20T02:55:17;16.00;99.90
15413;DHT22;7805;49.554;7.632;2023-07-20T02:57:43;15.90;99.90
15413;DHT22;7805;49.554;7.632;2023-07-20T03:00:09;15.80;99.90
15413;DHT22;7805;49.554;7.632;2023-07-20T03:02:35;15.60;99.90
15413;DHT22;7805;49.554;7.632;2023-07-20T03:05:00;15.40;99.90
15413;DHT22;7805;49.554;7.632;2023-07-20T03:07:28;15.30;99.90
15413;DHT22;7805;49.554;7.632;2023-07-20T03:09:54;15.40;99.90
15413;DHT22;7805;49.554;7.632;2023-07-20T03:12:20;15.70;99.90
15413;DHT22;7805;49.554;7.632;2023-07-20T03:14:46;15.40;99.90
15413;DHT22;7805;49.554;7.632;2023-07-20T03:17:11;15.40;99.90
15413;DHT22;7805;49.554;7.632;2023-07-20T03:19:37;15.20;99.90
15413;DHT22;7805;49.554;7.632;2023-07-20T03:22:03;15.20;99.90
15413;DHT22;7805;49.554;7.632;2023-07-20T03:24:28;15.20;99.90
15413;DHT22;7805;49.554;7.632;2023-07-20T03:26:54;15.30;99.90
15413;DHT22;7805;49.554;7.632;2023-07-20T03:29:19;15.30;99.90
15413;DHT22;7805;49.554;7.632;2023-07-20T03:31:45;15.30;99.90
15413;DHT22;7805;49.554;7.632;2023-07-20T03:34:10;15.40;99.90
15413;DHT22;7805;49.554;7.632;2023-07-20T03:36:36;15.40;99.90
15413;DHT22;7805;49.554;7.632;2023-07-20T03:39:02;15.40;99.90
15413;DHT22;7805;49.554;7.632;2023-07-20T03:41:28;15.30;99.90
15413;DHT22;7805;49.554;7.632;2023-07-20T03:43:54;15.30;99.90
15413;DHT22;7805;49.554;7.632;2023-07-20T03:46:20;15.20;99.90
15413;DHT22;7805;49.554;7.632;2023-07-20T03:48:45;15.30;99.90
15413;DHT22;7805;49.554;7.632;2023-07-20T03:51:11;15.20;99.90
15413;DHT22;7805;49.554;7.632;2023-07-20T03:53:36;15.20;99.90
15413;DHT22;7805;49.554;7.632;2023-07-20T03:56:02;15.20;99.90
15413;DHT22;7805;49.554;7.632;2023-07-20T03:58:28;15.10;99.90
15413;DHT22;7805;49.554;7.632;2023-07-20T04:00:55;15.10;99.90
15413;DHT22;7805;49.554;7.632;2023-07-20T04:03:21;15.10;99.90
15413;DHT22;7805;49.554;7.632;2023-07-20T04:05:48;15.10;99.90
15413;DHT22;7805;49.554;7.632;2023-07-20T04:08:13;15.00;99.90
15413;DHT22;7805;49.554;7.632;2023-07-20T04:10:39;15.00;99.90
15413;DHT22;7805;49.554;7.632;2023-07-20T04:13:08;15.00;99.90
15413;DHT22;7805;49.554;7.632;2023-07-20T04:15:33;15.00;99.90
15413;DHT22;7805;49.554;7.632;2023-07-20T04:17:59;15.00;99.90
15413;DHT22;7805;49.554;7.632;2023-07-20T04:20:26;14.90;99.90
15413;DHT22;7805;49.554;7.632;2023-07-20T04:22:51;14.90;99.90
15413;DHT22;7805;49.554;7.632;2023-07-20T04:25:18;14.90;99.90
15413;DHT22;7805;49.554;7.632;2023-07-20T04:27:44;14.90;99.90
15413;DHT22;7805;49.554;7.632;2023-07-20T04:30:11;15.00;99.90
15413;DHT22;7805;49.554;7.632;2023-07-20T04:32:37;15.00;99.90
15413;DHT22;7805;49.554;7.632;2023-07-20T04:35:06;15.00;99.90
15413;DHT22;7805;49.554;7.632;2023-07-20T04:37:33;15.00;99.90
15413;DHT22;7805;49.554;7.632;2023-07-20T04:39:58;15.10;99.90
15413;DHT22;7805;49.554;7.632;2023-07-20T04:42:24;15.10;99.90
15413;DHT22;7805;49.554;7.632;2023-07-20T04:44:50;15.10;99.90
15413;DHT22;7805;49.554;7.632;2023-07-20T04:47:15;15.10;99.90
15413;DHT22;7805;49.554;7.632;2023-07-20T04:49:41;15.10;99.90
15413;DHT22;7805;49.554;7.632;2023-07-20T04:52:07;15.10;99.90
15413;DHT22;7805;49.554;7.632;2023-07-20T04:54:33;15.00;99.90
15413;DHT22;7805;49.554;7.632;2023-07-20T04:56:58;15.00;99.90
15413;DHT22;7805;49.554;7.632;2023-07-20T04:59:24;15.10;99.90
15413;DHT22;7805;49.554;7.632;2023-07-20T05:01:49;15.00;99.90
15413;DHT22;7805;49.554;7.632;2023-07-20T05:04:15;15.10;99.90
15413;DHT22;7805;49.554;7.632;2023-07-20T05:06:40;15.20;99.90
15413;DHT22;7805;49.554;7.632;2023-07-20T05:09:06;15.30;99.90
15413;DHT22;7805;49.554;7.632;2023-07-20T05:11:32;15.50;99.90
15413;DHT22;7805;49.554;7.632;2023-07-20T05:13:57;15.70;99.90
15413;DHT22;7805;49.554;7.632;2023-07-20T05:16:23;15.90;99.90
15413;DHT22;7805;49.554;7.632;2023-07-20T05:18:48;16.00;99.90
15413;DHT22;7805;49.554;7.632;2023-07-20T05:21:14;16.20;99.90
15413;DHT22;7805;49.554;7.632;2023-07-20T05:23:39;16.30;99.90
15413;DHT22;7805;49.554;7.632;2023-07-20T05:26:05;16.40;99.90
15413;DHT22;7805;49.554;7.632;2023-07-20T05:28:31;16.50;99.90
15413;DHT22;7805;49.554;7.632;2023-07-20T05:30:57;16.80;99.90
15413;DHT22;7805;49.554;7.632;2023-07-20T05:33:24;17.00;99.90
15413;DHT22;7805;49.554;7.632;2023-07-20T05:35:50;17.10;99.90
15413;DHT22;7805;49.554;7.632;2023-07-20T05:38:16;17.10;99.90
15413;DHT22;7805;49.554;7.632;2023-07-20T05:40:43;17.10;99.90
15413;DHT22;7805;49.554;7.632;2023-07-20T05:43:09;17.40;99.90
15413;DHT22;7805;49.554;7.632;2023-07-20T05:45:34;17.60;99.90
15413;DHT22;7805;49.554;7.632;2023-07-20T05:48:00;17.90;99.90
15413;DHT22;7805;49.554;7.632;2023-07-20T05:50:25;18.20;99.90
15413;DHT22;7805;49.554;7.632;2023-07-20T05:52:54;18.30;99.90
15413;DHT22;7805;49.554;7.632;2023-07-20T05:55:20;18.50;99.90
15413;DHT22;7805;49.554;7.632;2023-07-20T05:57:46;18.60;99.90
15413;DHT22;7805;49.554;7.632;2023-07-20T06:00:13;18.80;99.90
15413;DHT22;7805;49.554;7.632;2023-07-20T06:02:39;18.80;99.90
15413;DHT22;7805;49.554;7.632;2023-07-20T06:05:08;18.90;99.90
15413;DHT22;7805;49.554;7.632;2023-07-20T06:07:37;19.20;99.90
15413;DHT22;7805;49.554;7.632;2023-07-20T06:10:03;19.60;99.90
15413;DHT22;7805;49.554;7.632;2023-07-20T06:12:29;19.90;99.90
15413;DHT22;7805;49.554;7.632;2023-07-20T06:14:55;20.40;99.90
15413;DHT22;7805;49.554;7.632;2023-07-20T06:17:20;20.40;99.90
15413;DHT22;7805;49.554;7.632;2023-07-20T06:19:46;20.70;99.90
15413;DHT22;7805;49.554;7.632;2023-07-20T06:22:11;20.90;99.90
15413;DHT22;7805;49.554;7.632;2023-07-20T06:24:37;21.00;99.90
15413;DHT22;7805;49.554;7.632;2023-07-20T06:27:03;21.30;99.90
15413;DHT22;7805;49.554;7.632;2023-07-20T06:29:31;21.40;99.90
15413;DHT22;7805;49.554;7.632;2023-07-20T06:31:56;21.50;99.90
15413;DHT22;7805;49.554;7.632;2023-07-20T06:34:22;21.60;99.90
15413;DHT22;7805;49.554;7.632;2023-07-20T06:36:47;21.90;99.90
15413;DHT22;7805;49.554;7.632;2023-07-20T06:39:13;21.90;99.90
15413;DHT22;7805;49.554;7.632;2023-07-20T06:41:39;21.90;99.90
15413;DHT22;7805;49.554;7.632;2023-07-20T06:44:05;22.30;99.90
15413;DHT22;7805;49.554;7.632;2023-07-20T06:46:30;22.70;99.90
15413;DHT22;7805;49.554;7.632;2023-07-20T06:48:56;23.00;99.90
15413;DHT22;7805;49.554;7.632;2023-07-20T06:51:22;23.30;99.40
15413;DHT22;7805;49.554;7.632;2023-07-20T06:53:48;23.40;98.80
15413;DHT22;7805;49.554;7.632;2023-07-20T06:56:14;23.20;98.50
15413;DHT22;7805;49.554;7.632;2023-07-20T06:58:39;21.30;98.00
15413;DHT22;7805;49.554;7.632;2023-07-20T07:01:08;22.80;98.50
15413;DHT22;7805;49.554;7.632;2023-07-20T07:03:34;22.90;98.50
15413;DHT22;7805;49.554;7.632;2023-07-20T07:06:00;23.20;98.30
15413;DHT22;7805;49.554;7.632;2023-07-20T07:08:25;23.40;97.40
15413;DHT22;7805;49.554;7.632;2023-07-20T07:10:52;23.40;97.10
15413;DHT22;7805;49.554;7.632;2023-07-20T07:13:18;23.40;97.00
15413;DHT22;7805;49.554;7.632;2023-07-20T07:15:44;23.50;97.20
15413;DHT22;7805;49.554;7.632;2023-07-20T07:18:10;23.70;96.60
15413;DHT22;7805;49.554;7.632;2023-07-20T07:20:35;23.60;96.00
15413;DHT22;7805;49.554;7.632;2023-07-20T07:23:01;23.80;96.40
15413;DHT22;7805;49.554;7.632;2023-07-20T07:25:27;24.00;95.80
15413;DHT22;7805;49.554;7.632;2023-07-20T07:27:54;24.00;94.50
15413;DHT22;7805;49.554;7.632;2023-07-20T07:30:21;23.90;94.20
15413;DHT22;7805;49.554;7.632;2023-07-20T07:32:46;23.90;93.60
15413;DHT22;7805;49.554;7.632;2023-07-20T07:35:12;23.60;93.60
15413;DHT22;7805;49.554;7.632;2023-07-20T07:37:38;23.70;93.80
15413;DHT22;7805;49.554;7.632;2023-07-20T07:40:04;23.80;94.00
15413;DHT22;7805;49.554;7.632;2023-07-20T07:42:31;23.10;93.60
15413;DHT22;7805;49.554;7.632;2023-07-20T07:44:56;24.10;93.20
15413;DHT22;7805;49.554;7.632;2023-07-20T07:47:22;24.20;92.30
15413;DHT22;7805;49.554;7.632;2023-07-20T07:49:47;24.00;92.60
15413;DHT22;7805;49.554;7.632;2023-07-20T07:52:13;24.20;92.80
15413;DHT22;7805;49.554;7.632;2023-07-20T07:54:39;24.70;93.40
15413;DHT22;7805;49.554;7.632;2023-07-20T07:57:05;24.80;93.00
15413;DHT22;7805;49.554;7.632;2023-07-20T07:59:31;25.00;92.40
15413;DHT22;7805;49.554;7.632;2023-07-20T08:02:05;24.80;91.00
15413;DHT22;7805;49.554;7.632;2023-07-20T08:04:31;25.00;91.50
15413;DHT22;7805;49.554;7.632;2023-07-20T08:06:56;25.50;91.40
15413;DHT22;7805;49.554;7.632;2023-07-20T08:09:22;25.40;90.90
15413;DHT22;7805;49.554;7.632;2023-07-20T08:11:47;25.20;90.50
15413;DHT22;7805;49.554;7.632;2023-07-20T08:14:14;25.20;90.40
15413;DHT22;7805;49.554;7.632;2023-07-20T08:16:49;25.30;89.90
15413;DHT22;7805;49.554;7.632;2023-07-20T08:19:14;25.20;88.90
15413;DHT22;7805;49.554;7.632;2023-07-20T08:21:40;24.70;90.10
15413;DHT22;7805;49.554;7.632;2023-07-20T08:24:06;25.00;90.20
15413;DHT22;7805;49.554;7.632;2023-07-20T08:26:31;25.00;89.50
15413;DHT22;7805;49.554;7.632;2023-07-20T08:28:57;25.20;89.30
15413;DHT22;7805;49.554;7.632;2023-07-20T08:31:22;25.50;88.60
15413;DHT22;7805;49.554;7.632;2023-07-20T08:33:48;25.40;87.70
15413;DHT22;7805;49.554;7.632;2023-07-20T08:36:14;25.60;87.80
15413;DHT22;7805;49.554;7.632;2023-07-20T08:38:39;25.80;86.30
15413;DHT22;7805;49.554;7.632;2023-07-20T08:41:05;25.90;85.50
15413;DHT22;7805;49.554;7.632;2023-07-20T08:43:31;25.50;84.70
15413;DHT22;7805;49.554;7.632;2023-07-20T08:45:58;25.70;85.70
15413;DHT22;7805;49.554;7.632;2023-07-20T08:48:24;25.60;85.10
15413;DHT22;7805;49.554;7.632;2023-07-20T08:50:52;25.40;84.00
15413;DHT22;7805;49.554;7.632;2023-07-20T08:53:20;25.50;84.70
15413;DHT22;7805;49.554;7.632;2023-07-20T08:55:49;24.80;83.90
15413;DHT22;7805;49.554;7.632;2023-07-20T08:58:16;25.90;83.80
15413;DHT22;7805;49.554;7.632;2023-07-20T09:00:43;26.10;81.50
15413;DHT22;7805;49.554;7.632;2023-07-20T09:03:10;26.60;80.80
15413;DHT22;7805;49.554;7.632;2023-07-20T09:05:36;26.40;79.70
15413;DHT22;7805;49.554;7.632;2023-07-20T09:08:02;26.30;79.80
15413;DHT22;7805;49.554;7.632;2023-07-20T09:10:31;26.30;79.20
15413;DHT22;7805;49.554;7.632;2023-07-20T09:12:57;26.40;78.20
15413;DHT22;7805;49.554;7.632;2023-07-20T09:15:22;26.60;78.50
15413;DHT22;7805;49.554;7.632;2023-07-20T09:17:51;26.80;77.00
15413;DHT22;7805;49.554;7.632;2023-07-20T09:20:19;26.80;75.80
15413;DHT22;7805;49.554;7.632;2023-07-20T09:22:46;27.00;76.50
15413;DHT22;7805;49.554;7.632;2023-07-20T09:25:18;27.00;75.00
15413;DHT22;7805;49.554;7.632;2023-07-20T09:27:48;27.20;74.80
15413;DHT22;7805;49.554;7.632;2023-07-20T09:30:15;27.40;73.50
15413;DHT22;7805;49.554;7.632;2023-07-20T09:32:44;27.40;72.30
15413;DHT22;7805;49.554;7.632;2023-07-20T09:35:21;27.60;72.20
15413;DHT22;7805;49.554;7.632;2023-07-20T09:40:20;27.40;72.70
15413;DHT22;7805;49.554;7.632;2023-07-20T09:42:46;27.40;71.30
15413;DHT22;7805;49.554;7.632;2023-07-20T09:45:11;27.50;71.00
15413;DHT22;7805;49.554;7.632;2023-07-20T09:47:38;27.60;70.50
15413;DHT22;7805;49.554;7.632;2023-07-20T09:50:05;27.60;69.60
15413;DHT22;7805;49.554;7.632;2023-07-20T09:52:39;27.60;68.90
15413;DHT22;7805;49.554;7.632;2023-07-20T09:55:07;27.60;69.00
15413;DHT22;7805;49.554;7.632;2023-07-20T09:57:33;27.60;68.70
15413;DHT22;7805;49.554;7.632;2023-07-20T10:00:00;27.70;68.60
15413;DHT22;7805;49.554;7.632;2023-07-20T10:02:30;28.10;68.20
15413;DHT22;7805;49.554;7.632;2023-07-20T10:04:58;27.90;65.80
15413;DHT22;7805;49.554;7.632;2023-07-20T10:07:27;28.20;65.80
15413;DHT22;7805;49.554;7.632;2023-07-20T10:09:53;27.90;64.80
15413;DHT22;7805;49.554;7.632;2023-07-20T10:12:22;28.10;65.70
15413;DHT22;7805;49.554;7.632;2023-07-20T10:15:11;28.40;64.90
15413;DHT22;7805;49.554;7.632;2023-07-20T10:17:45;28.50;63.60
15413;DHT22;7805;49.554;7.632;2023-07-20T10:20:16;28.50;63.30
15413;DHT22;7805;49.554;7.632;2023-07-20T10:22:43;28.20;63.60
15413;DHT22;7805;49.554;7.632;2023-07-20T10:25:10;28.30;63.40
15413;DHT22;7805;49.554;7.632;2023-07-20T10:27:36;28.50;63.60
15413;DHT22;7805;49.554;7.632;2023-07-20T10:30:02;28.70;62.40
15413;DHT22;7805;49.554;7.632;2023-07-20T10:32:29;28.70;61.00
15413;DHT22;7805;49.554;7.632;2023-07-20T10:34:56;27.90;60.70
15413;DHT22;7805;49.554;7.632;2023-07-20T10:37:54;27.80;62.10
15413;DHT22;7805;49.554;7.632;2023-07-20T10:40:30;27.80;60.90
15413;DHT22;7805;49.554;7.632;2023-07-20T10:43:03;28.10;61.40
15413;DHT22;7805;49.554;7.632;2023-07-20T10:48:03;28.50;60.40
15413;DHT22;7805;49.554;7.632;2023-07-20T10:50:30;28.40;60.80
15413;DHT22;7805;49.554;7.632;2023-07-20T10:55:37;27.90;58.20
15413;DHT22;7805;49.554;7.632;2023-07-20T10:58:13;28.90;58.70
15413;DHT22;7805;49.554;7.632;2023-07-20T11:01:00;28.70;58.50
15413;DHT22;7805;49.554;7.632;2023-07-20T11:03:37;28.40;58.50
15413;DHT22;7805;49.554;7.632;2023-07-20T11:08:56;28.20;59.00
15413;DHT22;7805;49.554;7.632;2023-07-20T11:11:23;28.50;59.00
15413;DHT22;7805;49.554;7.632;2023-07-20T11:14:30;28.50;58.80
15413;DHT22;7805;49.554;7.632;2023-07-20T11:17:11;28.40;57.90
15413;DHT22;7805;49.554;7.632;2023-07-20T11:19:39;28.50;57.80
15413;DHT22;7805;49.554;7.632;2023-07-20T11:22:06;28.60;58.00
15413;DHT22;7805;49.554;7.632;2023-07-20T11:24:41;28.50;58.80
15413;DHT22;7805;49.554;7.632;2023-07-20T11:27:07;28.50;59.00
15413;DHT22;7805;49.554;7.632;2023-07-20T11:29:35;28.70;58.70
15413;DHT22;7805;49.554;7.632;2023-07-20T11:32:03;29.00;58.80
15413;DHT22;7805;49.554;7.632;2023-07-20T11:34:30;28.90;58.20
15413;DHT22;7805;49.554;7.632;2023-07-20T11:36:56;28.60;58.80
15413;DHT22;7805;49.554;7.632;2023-07-20T11:39:22;28.00;60.10
15413;DHT22;7805;49.554;7.632;2023-07-20T11:41:57;27.30;61.30
15413;DHT22;7805;49.554;7.632;2023-07-20T11:44:27;27.20;62.10
15413;DHT22;7805;49.554;7.632;2023-07-20T11:47:20;27.80;61.90
15413;DHT22;7805;49.554;7.632;2023-07-20T11:49:46;28.20;60.30
15413;DHT22;7805;49.554;7.632;2023-07-20T11:52:16;28.30;60.80
15413;DHT22;7805;49.554;7.632;2023-07-20T11:54:43;28.20;58.90
15413;DHT22;7805;49.554;7.632;2023-07-20T11:57:20;27.80;58.70
15413;DHT22;7805;49.554;7.632;2023-07-20T12:00:15;27.80;60.10
15413;DHT22;7805;49.554;7.632;2023-07-20T12:02:41;27.60;60.80
15413;DHT22;7805;49.554;7.632;2023-07-20T12:05:07;27.70;60.70
15413;DHT22;7805;49.554;7.632;2023-07-20T12:07:36;28.10;59.10
15413;DHT22;7805;49.554;7.632;2023-07-20T12:10:11;28.10;56.40
15413;DHT22;7805;49.554;7.632;2023-07-20T12:12:41;27.50;54.50
15413;DHT22;7805;49.554;7.632;2023-07-20T12:15:23;27.50;55.80
15413;DHT22;7805;49.554;7.632;2023-07-20T12:17:53;27.60;56.10
15413;DHT22;7805;49.554;7.632;2023-07-20T12:20:33;27.60;56.30
15413;DHT22;7805;49.554;7.632;2023-07-20T12:23:03;27.80;56.30
15413;DHT22;7805;49.554;7.632;2023-07-20T12:25:44;28.30;56.90
15413;DHT22;7805;49.554;7.632;2023-07-20T12:28:17;29.10;56.00
15413;DHT22;7805;49.554;7.632;2023-07-20T12:30:44;28.60;54.00
15413;DHT22;7805;49.554;7.632;2023-07-20T12:33:10;28.60;55.00
15413;DHT22;7805;49.554;7.632;2023-07-20T12:35:37;29.40;55.70
15413;DHT22;7805;49.554;7.632;2023-07-20T12:38:03;29.40;55.10
15413;DHT22;7805;49.554;7.632;2023-07-20T12:40:28;29.50;55.70
15413;DHT22;7805;49.554;7.632;2023-07-20T12:42:54;29.20;54.70
15413;DHT22;7805;49.554;7.632;2023-07-20T12:45:20;28.70;54.50
15413;DHT22;7805;49.554;7.632;2023-07-20T12:47:46;29.00;54.90
15413;DHT22;7805;49.554;7.632;2023-07-20T12:50:11;29.30;54.60
15413;DHT22;7805;49.554;7.632;2023-07-20T12:52:38;29.10;52.90
15413;DHT22;7805;49.554;7.632;2023-07-20T12:55:08;29.00;53.50
15413;DHT22;7805;49.554;7.632;2023-07-20T12:57:35;28.90;53.50
15413;DHT22;7805;49.554;7.632;2023-07-20T13:00:02;29.20;53.40
15413;DHT22;7805;49.554;7.632;2023-07-20T13:02:31;29.10;53.00
15413;DHT22;7805;49.554;7.632;2023-07-20T13:04:57;29.10;53.20
15413;DHT22;7805;49.554;7.632;2023-07-20T13:07:34;29.40;53.50
15413;DHT22;7805;49.554;7.632;2023-07-20T13:10:00;30.30;53.20
15413;DHT22;7805;49.554;7.632;2023-07-20T13:12:30;30.30;52.90
15413;DHT22;7805;49.554;7.632;2023-07-20T13:14:56;30.80;52.40
15413;DHT22;7805;49.554;7.632;2023-07-20T13:17:25;31.10;51.60
15413;DHT22;7805;49.554;7.632;2023-07-20T13:19:51;31.10;49.80
15413;DHT22;7805;49.554;7.632;2023-07-20T13:22:16;30.60;49.20
15413;DHT22;7805;49.554;7.632;2023-07-20T13:24:44;29.90;50.30
15413;DHT22;7805;49.554;7.632;2023-07-20T13:27:10;28.30;49.40
15413;DHT22;7805;49.554;7.632;2023-07-20T13:29:36;30.30;50.30
15413;DHT22;7805;49.554;7.632;2023-07-20T13:32:02;30.50;50.30
15413;DHT22;7805;49.554;7.632;2023-07-20T13:34:29;31.00;50.50
15413;DHT22;7805;49.554;7.632;2023-07-20T13:36:55;31.50;49.50
15413;DHT22;7805;49.554;7.632;2023-07-20T13:39:20;31.50;49.30
15413;DHT22;7805;49.554;7.632;2023-07-20T13:41:49;31.20;48.20
15413;DHT22;7805;49.554;7.632;2023-07-20T13:44:15;30.60;48.10
15413;DHT22;7805;49.554;7.632;2023-07-20T13:46:40;30.10;48.40
15413;DHT22;7805;49.554;7.632;2023-07-20T13:49:06;29.70;48.10
15413;DHT22;7805;49.554;7.632;2023-07-20T13:51:32;29.40;48.70
15413;DHT22;7805;49.554;7.632;2023-07-20T13:53:57;29.10;49.00
15413;DHT22;7805;49.554;7.632;2023-07-20T13:56:24;29.10;49.20
15413;DHT22;7805;49.554;7.632;2023-07-20T13:58:50;29.20;49.50
15413;DHT22;7805;49.554;7.632;2023-07-20T14:01:16;29.70;49.70
15413;DHT22;7805;49.554;7.632;2023-07-20T14:03:43;29.80;49.10
15413;DHT22;7805;49.554;7.632;2023-07-20T14:06:09;29.60;49.10
15413;DHT22;7805;49.554;7.632;2023-07-20T14:08:34;29.40;49.40
15413;DHT22;7805;49.554;7.632;2023-07-20T14:11:00;29.20;50.10
15413;DHT22;7805;49.554;7.632;2023-07-20T14:13:26;29.00;50.40
15413;DHT22;7805;49.554;7.632;2023-07-20T14:15:51;29.00;51.20
15413;DHT22;7805;49.554;7.632;2023-07-20T14:18:17;29.20;51.10
15413;DHT22;7805;49.554;7.632;2023-07-20T14:20:42;29.70;50.70
15413;DHT22;7805;49.554;7.632;2023-07-20T14:23:09;30.20;49.70
15413;DHT22;7805;49.554;7.632;2023-07-20T14:25:35;30.00;47.20
15413;DHT22;7805;49.554;7.632;2023-07-20T14:28:01;29.70;47.60
15413;DHT22;7805;49.554;7.632;2023-07-20T14:30:27;29.90;48.40
15413;DHT22;7805;49.554;7.632;2023-07-20T14:32:52;30.00;47.10
15413;DHT22;7805;49.554;7.632;2023-07-20T14:35:18;29.90;46.60
15413;DHT22;7805;49.554;7.632;2023-07-20T14:37:44;29.70;46.40
15413;DHT22;7805;49.554;7.632;2023-07-20T14:40:12;29.70;46.70
15413;DHT22;7805;49.554;7.632;2023-07-20T14:42:38;29.60;46.40
15413;DHT22;7805;49.554;7.632;2023-07-20T14:45:04;29.40;46.50
15413;DHT22;7805;49.554;7.632;2023-07-20T14:47:31;29.30;46.90
15413;DHT22;7805;49.554;7.632;2023-07-20T14:50:03;29.30;46.90
15413;DHT22;7805;49.554;7.632;2023-07-20T14:52:28;29.20;47.10
15413;DHT22;7805;49.554;7.632;2023-07-20T14:54:54;28.80;47.40
15413;DHT22;7805;49.554;7.632;2023-07-20T14:57:20;27.80;48.20
15413;DHT22;7805;49.554;7.632;2023-07-20T14:59:51;28.10;49.50
15413;DHT22;7805;49.554;7.632;2023-07-20T15:02:20;28.80;49.40
15413;DHT22;7805;49.554;7.632;2023-07-20T15:04:50;29.60;49.00
15413;DHT22;7805;49.554;7.632;2023-07-20T15:07:17;30.60;48.80
15413;DHT22;7805;49.554;7.632;2023-07-20T15:09:44;30.80;47.20
15413;DHT22;7805;49.554;7.632;2023-07-20T15:12:10;31.00;45.80
15413;DHT22;7805;49.554;7.632;2023-07-20T15:14:35;31.20;45.30
15413;DHT22;7805;49.554;7.632;2023-07-20T15:17:01;31.30;44.60
15413;DHT22;7805;49.554;7.632;2023-07-20T15:19:28;31.20;44.40
15413;DHT22;7805;49.554;7.632;2023-07-20T15:21:54;31.00;43.50
15413;DHT22;7805;49.554;7.632;2023-07-20T15:24:19;30.90;43.20
15413;DHT22;7805;49.554;7.632;2023-07-20T15:26:45;28.70;41.60
15413;DHT22;7805;49.554;7.632;2023-07-20T15:29:10;30.70;42.60
15413;DHT22;7805;49.554;7.632;2023-07-20T15:31:36;30.70;43.20
15413;DHT22;7805;49.554;7.632;2023-07-20T15:34:01;30.60;42.20
15413;DHT22;7805;49.554;7.632;2023-07-20T15:36:27;30.40;41.60
15413;DHT22;7805;49.554;7.632;2023-07-20T15:38:53;30.40;42.10
15413;DHT22;7805;49.554;7.632;2023-07-20T15:41:18;30.10;42.30
15413;DHT22;7805;49.554;7.632;2023-07-20T15:43:44;29.90;43.00
15413;DHT22;7805;49.554;7.632;2023-07-20T15:48:44;29.90;44.10
15413;DHT22;7805;49.554;7.632;2023-07-20T15:51:10;30.10;44.20
15413;DHT22;7805;49.554;7.632;2023-07-20T15:53:36;30.40;43.90
15413;DHT22;7805;49.554;7.632;2023-07-20T15:56:01;30.50;43.80
15413;DHT22;7805;49.554;7.632;2023-07-20T15:58:27;30.40;43.80
15413;DHT22;7805;49.554;7.632;2023-07-20T16:00:53;30.10;43.30
15413;DHT22;7805;49.554;7.632;2023-07-20T16:03:20;29.70;43.80
15413;DHT22;7805;49.554;7.632;2023-07-20T16:05:46;29.50;44.30
15413;DHT22;7805;49.554;7.632;2023-07-20T16:08:11;29.40;45.40
15413;DHT22;7805;49.554;7.632;2023-07-20T16:10:37;29.80;45.60